createdAt,value
2018-06-05T00:00:18.243Z,99587.63
2018-06-05T00:02:46.467Z,99585.28
2018-06-05T00:05:14.830Z,99585.43
2018-06-05T00:07:43.054Z,99588.20
2018-06-05T00:10:11.199Z,99596.59
2018-06-05T00:12:39.385Z,99598.44
2018-06-05T00:15:07.688Z,99587.77
2018-06-05T00:17:36.360Z,99592.45
2018-06-05T00:20:04.790Z,99590.89
2018-06-05T00:22:32.900Z,99590.20
2018-06-05T00:25:01.039Z,99592.20
2018-06-05T00:27:29.366Z,99588.89
2018-06-05T00:29:57.666Z,99585.50
2018-06-05T00:32:25.802Z,99588.20
2018-06-05T00:34:53.898Z,99586.92
2018-06-05T00:37:21.999Z,99590.34
2018-06-05T00:39:50.891Z,99591.33
2018-06-05T00:42:18.986Z,99596.44
2018-06-05T00:44:47.126Z,99593.77
2018-06-05T00:47:15.383Z,99592.52
2018-06-05T00:49:43.508Z,99591.22
2018-06-05T00:52:11.634Z,99594.07
2018-06-05T00:54:40.051Z,99595.50
2018-06-05T00:57:08.604Z,99590.61
2018-06-05T00:59:36.715Z,99594.88
2018-06-05T01:02:04.815Z,99599.95
2018-06-05T01:04:32.962Z,99599.80
2018-06-05T01:07:01.286Z,99601.71
2018-06-05T01:09:29.363Z,99598.36
2018-06-05T01:11:57.447Z,99597.14
2018-06-05T01:14:25.510Z,99596.79
2018-06-05T01:16:53.627Z,99594.20
2018-06-05T01:19:22.025Z,99590.81
2018-06-05T01:21:50.212Z,99593.58
2018-06-05T01:24:19.258Z,99591.51
2018-06-05T01:26:47.360Z,99594.85
2018-06-05T01:29:15.550Z,99598.70
2018-06-05T01:31:43.721Z,99599.59
2018-06-05T01:34:12.645Z,99595.61
2018-06-05T01:36:40.720Z,99597.95
2018-06-05T01:39:09.625Z,99591.72
2018-06-05T01:41:38.203Z,99600.09
2018-06-05T01:44:06.417Z,99590.56
2018-06-05T01:46:34.515Z,99597.03
2018-06-05T01:49:02.636Z,99596.37
2018-06-05T01:51:30.875Z,99594.88
2018-06-05T01:53:58.998Z,99591.91
2018-06-05T01:56:28.184Z,99593.66
2018-06-05T01:58:56.278Z,99596.64
2018-06-05T02:01:24.371Z,99595.36
2018-06-05T02:03:52.474Z,99597.30
2018-06-05T02:06:20.692Z,99601.53
2018-06-05T02:08:48.769Z,99607.16
2018-06-05T02:11:17.519Z,99611.14
2018-06-05T02:13:45.625Z,99611.52
2018-06-05T02:16:13.714Z,99602.81
2018-06-05T02:18:42.358Z,99607.41
2018-06-05T02:21:10.486Z,99606.49
2018-06-05T02:23:38.595Z,99603.95
2018-06-05T02:26:06.749Z,99610.42
2018-06-05T02:28:34.938Z,99608.30
2018-06-05T02:31:03.018Z,99605.39
2018-06-05T02:33:31.100Z,99605.78
2018-06-05T02:35:59.493Z,99596.25
2018-06-05T02:38:27.672Z,99604.11
2018-06-05T02:40:55.753Z,99609.59
2018-06-05T02:43:23.910Z,99599.10
2018-06-05T02:45:51.986Z,99602.34
2018-06-05T02:48:20.088Z,99604.66
2018-06-05T02:50:48.193Z,99610.23
2018-06-05T02:53:16.300Z,99610.77
2018-06-05T02:55:44.374Z,99605.11
2018-06-05T02:58:12.531Z,99607.39
2018-06-05T03:00:40.930Z,99608.22
2018-06-05T03:03:09.047Z,99608.67
2018-06-05T03:05:37.394Z,99614.30
2018-06-05T03:08:05.500Z,99616.44
2018-06-05T03:10:33.593Z,99620.33
2018-06-05T03:13:02.202Z,99620.37
2018-06-05T03:15:30.599Z,99624.66
2018-06-05T03:17:58.706Z,99629.31
2018-06-05T03:20:27.293Z,99634.16
2018-06-05T03:22:55.433Z,99635.05
2018-06-05T03:25:23.539Z,99631.11
2018-06-05T03:27:51.682Z,99636.37
2018-06-05T03:30:19.774Z,99636.73
2018-06-05T03:32:47.869Z,99641.55
2018-06-05T03:35:15.950Z,99641.91
2018-06-05T03:37:44.043Z,99644.09
2018-06-05T03:40:12.148Z,99644.02
2018-06-05T03:42:40.351Z,99647.94
2018-06-05T03:45:08.471Z,99651.37
2018-06-05T03:47:36.602Z,99652.12
2018-06-05T03:50:05.367Z,99648.79
2018-06-05T03:52:33.535Z,99653.81
2018-06-05T03:55:01.812Z,99646.61
2018-06-05T03:57:29.896Z,99654.73
2018-06-05T03:59:58.014Z,99655.70
2018-06-05T04:02:26.185Z,99660.28
2018-06-05T04:04:54.281Z,99654.33
2018-06-05T04:07:22.424Z,99651.28
2018-06-05T04:09:50.525Z,99655.20
2018-06-05T04:12:18.597Z,99658.59
2018-06-05T04:14:46.730Z,99654.92
2018-06-05T04:17:14.830Z,99652.59
2018-06-05T04:19:42.935Z,99647.44
2018-06-05T04:22:11.001Z,99650.37
2018-06-05T04:24:39.109Z,99647.61
2018-06-05T04:27:07.207Z,99652.41
2018-06-05T04:29:35.285Z,99657.75
2018-06-05T04:32:11.355Z,99660.69
2018-06-05T04:34:43.744Z,99665.52
2018-06-05T04:37:14.766Z,99669.19
2018-06-05T04:39:42.920Z,99667.20
2018-06-05T04:44:48.675Z,99664.12
2018-06-05T04:47:16.845Z,99668.56
2018-06-05T04:49:44.987Z,99671.09
2018-06-05T04:52:13.177Z,99673.72
2018-06-05T04:54:41.262Z,99677.02
2018-06-05T04:57:09.938Z,99674.86
2018-06-05T04:59:38.037Z,99676.23
2018-06-05T05:02:06.210Z,99679.98
2018-06-05T05:04:34.535Z,99674.75
2018-06-05T05:07:02.651Z,99673.70
2018-06-05T05:09:30.743Z,99678.05
2018-06-05T05:12:00.554Z,99677.11
2018-06-05T05:14:28.651Z,99688.81
2018-06-05T05:16:56.807Z,99691.06
2018-06-05T05:19:24.930Z,99689.92
2018-06-05T05:21:53.103Z,99683.03
2018-06-05T05:24:21.292Z,99692.31
2018-06-05T05:26:49.379Z,99695.19
2018-06-05T05:29:17.467Z,99692.20
2018-06-05T05:34:20.662Z,99699.13
2018-06-05T05:36:49.086Z,99696.37
2018-06-05T05:39:17.182Z,99698.88
2018-06-05T05:41:45.254Z,99697.75
2018-06-05T05:44:13.414Z,99702.73
2018-06-05T05:46:41.499Z,99703.47
2018-06-05T05:49:09.609Z,99698.17
2018-06-05T05:51:37.678Z,99699.91
2018-06-05T05:54:05.794Z,99699.45
2018-06-05T05:56:34.083Z,99706.98
2018-06-05T05:59:02.170Z,99709.57
2018-06-05T06:01:30.321Z,99709.48
2018-06-05T06:03:58.410Z,99713.36
2018-06-05T06:06:28.050Z,99710.92
2018-06-05T06:08:56.121Z,99706.02
2018-06-05T06:11:24.184Z,99708.38
2018-06-05T06:13:52.244Z,99709.88
2018-06-05T06:16:21.111Z,99700.64
2018-06-05T06:18:49.174Z,99707.50
2018-06-05T06:21:17.273Z,99704.02
2018-06-05T06:23:45.327Z,99705.78
2018-06-05T06:26:13.668Z,99707.23
2018-06-05T06:28:41.968Z,99706.52
2018-06-05T06:31:10.220Z,99713.38
2018-06-05T06:33:38.673Z,99715.48
2018-06-05T06:36:06.815Z,99706.79
2018-06-05T06:38:34.956Z,99710.51
2018-06-05T06:41:03.091Z,99702.41
2018-06-05T06:43:31.173Z,99710.69
2018-06-05T06:45:59.384Z,99711.05
2018-06-05T06:48:27.510Z,99702.29
2018-06-05T06:50:55.682Z,99709.03
2018-06-05T06:53:23.781Z,99702.71
2018-06-05T06:55:52.042Z,99703.45
2018-06-05T06:58:20.130Z,99707.20
2018-06-05T07:00:48.296Z,99703.30
2018-06-05T07:03:16.410Z,99700.98
2018-06-05T07:05:44.828Z,99698.61
2018-06-05T07:08:12.970Z,99694.50
2018-06-05T07:10:41.046Z,99696.52
2018-06-05T07:13:09.141Z,99701.45
2018-06-05T07:15:37.478Z,99703.55
2018-06-05T07:18:05.583Z,99703.30
2018-06-05T07:20:33.658Z,99699.09
2018-06-05T07:23:01.786Z,99707.48
2018-06-05T07:25:29.875Z,99700.44
2018-06-05T07:27:58.022Z,99703.74
2018-06-05T07:30:26.100Z,99709.09
2018-06-05T07:32:54.174Z,99708.78
2018-06-05T07:35:22.255Z,99711.23
2018-06-05T07:37:50.358Z,99713.91
2018-06-05T07:40:18.607Z,99715.45
2018-06-05T07:42:46.683Z,99713.44
2018-06-05T07:45:15.603Z,99709.55
2018-06-05T07:47:43.678Z,99702.84
2018-06-05T07:50:11.799Z,99707.11
2018-06-05T07:52:39.902Z,99701.66
2018-06-05T07:55:07.995Z,99704.42
2018-06-05T07:57:36.096Z,99706.25
2018-06-05T08:00:04.448Z,99707.34
2018-06-05T08:02:32.870Z,99704.80
2018-06-05T08:05:01.054Z,99706.32
2018-06-05T08:07:29.145Z,99706.44
2018-06-05T08:09:57.235Z,99706.95
2018-06-05T08:12:25.351Z,99703.40
2018-06-05T08:14:53.650Z,99710.16
2018-06-05T08:17:21.751Z,99696.29
2018-06-05T08:19:49.802Z,99703.17
2018-06-05T08:22:17.905Z,99704.52
2018-06-05T08:24:46.404Z,99707.16
2018-06-05T08:27:15.379Z,99704.89
2018-06-05T08:29:43.562Z,99707.70
2018-06-05T08:32:16.610Z,99708.58
2018-06-05T08:34:45.454Z,99705.72
2018-06-05T08:37:14.806Z,99709.38
2018-06-05T08:39:43.362Z,99706.37
2018-06-05T08:42:11.419Z,99706.13
2018-06-05T08:44:39.489Z,99712.95
2018-06-05T08:47:07.615Z,99707.30
2018-06-05T08:49:35.699Z,99706.81
2018-06-05T08:52:03.972Z,99711.94
2018-06-05T08:54:32.279Z,99706.10
2018-06-05T08:57:00.412Z,99709.55
2018-06-05T08:59:28.480Z,99706.04
2018-06-05T09:01:56.571Z,99710.72
2018-06-05T09:04:24.937Z,99712.16
2018-06-05T09:06:53.033Z,99719.98
2018-06-05T09:09:21.435Z,99722.39
2018-06-05T09:11:49.470Z,99715.34
2018-06-05T09:14:17.616Z,99713.64
2018-06-05T09:16:46.124Z,99711.67
2018-06-05T09:19:15.019Z,99714.85
2018-06-05T09:21:43.083Z,99720.73
2018-06-05T09:24:11.157Z,99713.77
2018-06-05T09:26:39.206Z,99703.40
2018-06-05T09:29:07.323Z,99710.13
2018-06-05T09:31:35.884Z,99710.52
2018-06-05T09:34:04.362Z,99712.61
2018-06-05T09:36:32.839Z,99710.30
2018-06-05T09:39:01.294Z,99708.86
2018-06-05T09:41:29.484Z,99713.75
2018-06-05T09:43:57.659Z,99709.55
2018-06-05T09:46:25.730Z,99704.72
2018-06-05T09:48:54.069Z,99710.72
2018-06-05T09:51:22.135Z,99704.88
2018-06-05T09:53:50.206Z,99706.58
2018-06-05T09:56:18.306Z,99699.73
2018-06-05T09:58:46.559Z,99701.19
2018-06-05T10:05:46.258Z,99699.00
2018-06-05T10:08:14.334Z,99690.75
2018-06-05T10:10:42.413Z,99687.65
2018-06-05T10:13:11.324Z,99685.48
2018-06-05T10:15:39.428Z,99698.09
2018-06-05T10:18:07.531Z,99694.41
2018-06-05T10:20:35.656Z,99698.19
2018-06-05T10:23:04.097Z,99689.11
2018-06-05T10:25:32.262Z,99692.08
2018-06-05T10:28:00.416Z,99691.73
2018-06-05T10:30:28.520Z,99685.90
2018-06-05T10:32:57.295Z,99685.67
2018-06-05T10:35:25.530Z,99686.55
2018-06-05T10:37:54.377Z,99676.52
2018-06-05T10:40:22.505Z,99679.63
2018-06-05T10:42:50.663Z,99672.41
2018-06-05T10:45:18.808Z,99676.13
2018-06-05T10:47:46.907Z,99676.16
2018-06-05T10:50:18.370Z,99673.47
2018-06-05T10:52:46.931Z,99667.02
2018-06-05T10:55:16.003Z,99665.04
2018-06-05T10:57:44.079Z,99668.56
2018-06-05T11:00:12.236Z,99671.98
2018-06-05T11:02:40.483Z,99668.55
2018-06-05T11:05:08.589Z,99667.59
2018-06-05T11:07:36.670Z,99665.63
2018-06-05T11:10:04.747Z,99667.94
2018-06-05T11:12:33.304Z,99670.55
2018-06-05T11:15:01.454Z,99670.22
2018-06-05T11:17:29.568Z,99656.02
2018-06-05T11:19:57.981Z,99661.73
2018-06-05T11:22:26.126Z,99655.14
2018-06-05T11:24:54.250Z,99654.31
2018-06-05T11:27:22.358Z,99651.37
2018-06-05T11:29:50.542Z,99652.11
2018-06-05T11:32:18.950Z,99648.00
2018-06-05T11:34:47.245Z,99645.09
2018-06-05T11:37:16.758Z,99643.91
2018-06-05T11:39:45.168Z,99646.20
2018-06-05T11:42:13.369Z,99636.62
2018-06-05T11:44:41.447Z,99648.45
2018-06-05T11:47:09.653Z,99639.91
2018-06-05T11:49:37.717Z,99631.78
2018-06-05T11:52:05.764Z,99630.30
2018-06-05T11:54:33.828Z,99628.20
2018-06-05T11:57:01.884Z,99632.20
2018-06-05T11:59:29.997Z,99624.98
2018-06-05T12:01:58.207Z,99622.84
2018-06-05T12:04:26.275Z,99621.33
2018-06-05T12:06:54.512Z,99620.63
2018-06-05T12:09:22.615Z,99615.79
2018-06-05T12:11:50.699Z,99619.95
2018-06-05T12:14:18.755Z,99616.00
2018-06-05T12:16:46.909Z,99605.48
2018-06-05T12:19:15.904Z,99603.77
2018-06-05T12:21:44.622Z,99604.45
2018-06-05T12:24:13.214Z,99597.95
2018-06-05T12:26:41.378Z,99595.76
2018-06-05T12:29:09.471Z,99589.56
2018-06-05T12:31:37.555Z,99585.31
2018-06-05T12:34:06.071Z,99590.96
2018-06-05T12:36:34.716Z,99580.60
2018-06-05T12:39:03.360Z,99584.54
2018-06-05T12:41:31.757Z,99574.44
2018-06-05T12:44:00.392Z,99576.05
2018-06-05T12:46:28.506Z,99572.55
2018-06-05T12:48:56.611Z,99571.23
2018-06-05T12:51:25.146Z,99571.67
2018-06-05T12:53:53.334Z,99572.17
2018-06-05T12:56:21.435Z,99571.97
2018-06-05T12:58:49.529Z,99567.93
2018-06-05T13:01:17.729Z,99565.92
2018-06-05T13:03:46.575Z,99564.41
2018-06-05T13:06:14.650Z,99563.13
2018-06-05T13:08:42.971Z,99561.38
2018-06-05T13:11:11.038Z,99554.80
2018-06-05T13:13:39.115Z,99561.58
2018-06-05T13:16:07.214Z,99556.66
2018-06-05T13:18:35.318Z,99556.57
2018-06-05T13:21:04.239Z,99548.70
2018-06-05T13:23:32.435Z,99562.09
2018-06-05T13:26:00.608Z,99540.65
2018-06-05T13:28:28.742Z,99545.22
2018-06-05T13:30:57.374Z,99551.22
2018-06-05T13:33:26.192Z,99547.84
2018-06-05T13:35:54.670Z,99548.50
2018-06-05T13:38:22.793Z,99537.96
2018-06-05T13:40:50.924Z,99538.09
2018-06-05T13:43:19.035Z,99539.32
2018-06-05T13:45:47.164Z,99549.08
2018-06-05T13:48:15.508Z,99545.13
2018-06-05T13:50:43.684Z,99539.38
2018-06-05T13:53:11.956Z,99537.62
2018-06-05T13:55:40.111Z,99541.73
2018-06-05T13:58:08.393Z,99545.41
2018-06-05T14:00:36.532Z,99539.67
2018-06-05T14:03:04.696Z,99539.16
2018-06-05T14:05:33.007Z,99533.97
2018-06-05T14:08:01.155Z,99532.25
2018-06-05T14:10:29.352Z,99533.80
2018-06-05T14:12:57.554Z,99528.63
2018-06-05T14:15:25.646Z,99537.72
2018-06-05T14:17:53.883Z,99531.24
2018-06-05T14:20:21.952Z,99532.27
2018-06-05T14:22:50.208Z,99539.83
2018-06-05T14:25:18.655Z,99535.45
2018-06-05T14:27:46.824Z,99532.41
2018-06-05T14:30:15.255Z,99530.34
2018-06-05T14:32:43.417Z,99527.36
2018-06-05T14:35:11.590Z,99525.14
2018-06-05T14:37:39.727Z,99526.59
2018-06-05T14:40:07.834Z,99527.94
2018-06-05T14:42:35.935Z,99518.39
2018-06-05T14:45:04.065Z,99519.23
2018-06-05T14:47:32.320Z,99517.42
2018-06-05T14:50:00.466Z,99514.92
2018-06-05T14:52:29.057Z,99520.00
2018-06-05T14:54:57.452Z,99518.35
2018-06-05T14:57:25.518Z,99519.55
2018-06-05T14:59:53.631Z,99513.59
2018-06-05T15:02:21.984Z,99523.07
2018-06-05T15:04:50.143Z,99512.36
2018-06-05T15:07:18.327Z,99515.31
2018-06-05T15:09:47.423Z,99515.38
2018-06-05T15:12:16.003Z,99514.90
2018-06-05T15:14:44.366Z,99505.25
2018-06-05T15:17:12.495Z,99502.30
2018-06-05T15:19:40.805Z,99506.32
2018-06-05T15:22:09.136Z,99499.59
2018-06-05T15:27:10.326Z,99499.00
2018-06-05T15:29:38.512Z,99497.85
2018-06-05T15:32:06.838Z,99494.45
2018-06-05T15:34:34.983Z,99501.38
2018-06-05T15:37:03.144Z,99496.64
2018-06-05T15:39:31.306Z,99498.38
2018-06-05T15:42:02.485Z,99483.61
2018-06-05T15:44:34.051Z,99490.36
2018-06-05T15:47:02.128Z,99498.56
2018-06-05T15:49:30.240Z,99497.11
2018-06-05T15:51:58.362Z,99500.50
2018-06-05T15:54:26.591Z,99500.18
2018-06-05T15:56:54.662Z,99497.17
2018-06-05T15:59:22.722Z,99493.98
2018-06-05T16:01:50.847Z,99501.12
2018-06-05T16:04:18.953Z,99502.34
2018-06-05T16:06:47.420Z,99506.26
2018-06-05T16:09:15.661Z,99502.94
2018-06-05T16:11:43.730Z,99504.73
2018-06-05T16:14:11.886Z,99504.09
2018-06-05T16:16:40.007Z,99504.13
2018-06-05T16:19:08.110Z,99506.66
2018-06-05T16:21:36.237Z,99504.66
2018-06-05T16:24:04.324Z,99509.69
2018-06-05T16:26:32.407Z,99512.09
2018-06-05T16:29:00.574Z,99511.89
2018-06-05T16:31:28.847Z,99520.77
2018-06-05T16:33:57.170Z,99509.94
2018-06-05T16:36:26.084Z,99511.08
2018-06-05T16:38:54.212Z,99502.42
2018-06-05T16:41:22.732Z,99507.00
2018-06-05T16:43:50.844Z,99504.02
2018-06-05T16:46:19.050Z,99503.92
2018-06-05T16:48:47.573Z,99503.20
2018-06-05T16:51:15.651Z,99498.58
2018-06-05T16:53:43.829Z,99502.34
2018-06-05T16:56:11.901Z,99496.70
2018-06-05T16:58:40.332Z,99485.62
2018-06-05T17:01:08.457Z,99490.13
2018-06-05T17:03:36.766Z,99487.44
2018-06-05T17:06:04.956Z,99491.25
2018-06-05T17:08:33.283Z,99500.75
2018-06-05T17:11:01.480Z,99493.41
2018-06-05T17:13:29.559Z,99494.20
2018-06-05T17:15:57.632Z,99480.68
2018-06-05T17:18:26.226Z,99480.86
2018-06-05T17:20:54.355Z,99491.83
2018-06-05T17:23:22.435Z,99490.90
2018-06-05T17:25:50.940Z,99481.70
2018-06-05T17:28:19.087Z,99489.20
2018-06-05T17:30:47.692Z,99485.16
2018-06-05T17:33:15.795Z,99486.92
2018-06-05T17:35:44.043Z,99482.23
2018-06-05T17:38:12.140Z,99491.31
2018-06-05T17:40:40.435Z,99487.03
2018-06-05T17:43:08.608Z,99485.95
2018-06-05T17:45:36.751Z,99484.42
2018-06-05T17:48:04.902Z,99480.53
2018-06-05T17:50:33.146Z,99476.70
2018-06-05T17:53:01.409Z,99479.55
2018-06-05T17:55:29.730Z,99480.06
2018-06-05T17:57:57.835Z,99472.48
2018-06-05T18:00:25.927Z,99483.36
2018-06-05T18:02:54.000Z,99478.75
2018-06-05T18:05:22.212Z,99482.30
2018-06-05T18:07:50.353Z,99485.53
2018-06-05T18:10:18.501Z,99481.73
2018-06-05T18:12:46.587Z,99493.36
2018-06-05T18:15:16.798Z,99483.70
2018-06-05T18:17:45.153Z,99487.22
2018-06-05T18:20:13.226Z,99486.72
2018-06-05T18:22:41.899Z,99493.54
2018-06-05T18:25:11.035Z,99485.84
2018-06-05T18:27:39.339Z,99499.05
2018-06-05T18:30:07.405Z,99499.10
2018-06-05T18:32:35.471Z,99501.32
2018-06-05T18:35:03.576Z,99503.85
2018-06-05T18:37:31.640Z,99501.69
2018-06-05T18:39:59.729Z,99511.21
2018-06-05T18:42:27.846Z,99516.42
2018-06-05T18:44:56.010Z,99515.72
2018-06-05T18:47:24.245Z,99520.73
2018-06-05T18:49:52.363Z,99520.64
2018-06-05T18:52:20.448Z,99526.09
2018-06-05T18:54:48.535Z,99523.16
2018-06-05T18:57:17.217Z,99527.70
2018-06-05T18:59:45.279Z,99531.20
2018-06-05T19:02:13.550Z,99536.30
2018-06-05T19:04:41.730Z,99536.34
2018-06-05T19:07:09.933Z,99538.34
2018-06-05T19:09:38.026Z,99532.66
2018-06-05T19:12:06.485Z,99543.42
2018-06-05T19:14:34.602Z,99544.52
2018-06-05T19:17:02.849Z,99550.56
2018-06-05T19:19:31.066Z,99554.56
2018-06-05T19:21:59.124Z,99556.14
2018-06-05T19:24:27.483Z,99555.40
2018-06-05T19:26:55.583Z,99561.30
2018-06-05T19:29:23.774Z,99560.02
2018-06-05T19:31:51.872Z,99565.90
2018-06-05T19:34:19.947Z,99573.59
2018-06-05T19:36:48.255Z,99573.80
2018-06-05T19:39:16.907Z,99575.11
2018-06-05T19:41:45.343Z,99580.44
2018-06-05T19:44:13.451Z,99587.34
2018-06-05T19:46:41.620Z,99598.84
2018-06-05T19:49:09.652Z,99600.53
2018-06-05T19:51:37.832Z,99607.69
2018-06-05T19:54:05.994Z,99614.36
2018-06-05T19:56:34.101Z,99618.10
2018-06-05T19:59:02.225Z,99623.44
2018-06-05T20:01:30.467Z,99625.64
2018-06-05T20:03:58.570Z,99634.99
2018-06-05T20:06:26.710Z,99641.63
2018-06-05T20:08:54.787Z,99640.11
2018-06-05T20:11:22.892Z,99645.89
2018-06-05T20:13:51.143Z,99650.81
2018-06-05T20:16:19.266Z,99664.43
2018-06-05T20:18:48.414Z,99666.28
2018-06-05T20:21:16.730Z,99661.07
2018-06-05T20:23:44.861Z,99664.03
2018-06-05T20:26:12.986Z,99666.30
2018-06-05T20:28:41.138Z,99669.60
2018-06-05T20:31:09.239Z,99674.21
2018-06-05T20:33:37.555Z,99671.76
2018-06-05T20:36:05.739Z,99669.65
2018-06-05T20:38:34.047Z,99674.64
2018-06-05T20:41:03.215Z,99677.27
2018-06-05T20:43:31.358Z,99680.71
2018-06-05T20:45:59.959Z,99682.13
2018-06-05T20:48:28.095Z,99687.58
2018-06-05T20:50:56.378Z,99694.27
2018-06-05T20:53:24.901Z,99700.62
2018-06-05T20:55:54.836Z,99693.05
2018-06-05T20:58:23.337Z,99696.82
2018-06-05T21:00:52.422Z,99697.09
2018-06-05T21:03:21.198Z,99693.47
2018-06-05T21:05:49.625Z,99702.00
2018-06-05T21:08:20.294Z,99694.58
2018-06-05T21:10:48.680Z,99704.89
2018-06-05T21:13:17.461Z,99701.30
2018-06-05T21:15:45.558Z,99703.09
2018-06-05T21:18:13.951Z,99699.27
2018-06-05T21:20:42.192Z,99699.11
2018-06-05T21:23:10.399Z,99702.13
2018-06-05T21:25:38.726Z,99696.48
2018-06-05T21:28:07.603Z,99698.36
2018-06-05T21:30:35.962Z,99709.33
2018-06-05T21:33:04.635Z,99697.03
2018-06-05T21:35:32.764Z,99700.52
2018-06-05T21:38:00.860Z,99703.69
2018-06-05T21:40:29.454Z,99706.83
2018-06-05T21:42:57.592Z,99706.64
2018-06-05T21:45:25.735Z,99709.84
2018-06-05T21:47:53.940Z,99706.19
2018-06-05T21:50:22.016Z,99704.17
2018-06-05T21:52:50.145Z,99709.91
2018-06-05T21:55:19.190Z,99707.16
2018-06-05T21:57:47.882Z,99707.40
2018-06-05T22:00:18.496Z,99708.16
2018-06-05T22:02:46.584Z,99708.09
2018-06-05T22:05:14.686Z,99710.70
2018-06-05T22:07:42.791Z,99709.95
2018-06-05T22:10:11.535Z,99709.66
2018-06-05T22:12:39.648Z,99709.63
2018-06-05T22:15:08.084Z,99715.83
2018-06-05T22:17:36.200Z,99714.50
2018-06-05T22:20:04.653Z,99715.69
2018-06-05T22:22:33.202Z,99710.89
2018-06-05T22:25:01.429Z,99719.85
2018-06-05T22:27:29.573Z,99719.09
2018-06-05T22:29:57.663Z,99721.70
2018-06-05T22:32:25.791Z,99719.48
2018-06-05T22:34:53.895Z,99725.45
2018-06-05T22:37:22.008Z,99720.63
2018-06-05T22:39:50.071Z,99713.61
2018-06-05T22:42:19.118Z,99714.55
2018-06-05T22:44:47.348Z,99722.55
2018-06-05T22:47:15.735Z,99724.05
2018-06-05T22:49:43.817Z,99715.80
2018-06-05T22:52:11.917Z,99715.61
2018-06-05T22:54:40.046Z,99715.87
2018-06-05T22:57:08.147Z,99713.75
2018-06-05T22:59:36.282Z,99719.37
2018-06-05T23:02:04.417Z,99711.60
2018-06-05T23:04:32.511Z,99718.91
2018-06-05T23:07:00.582Z,99719.87
2018-06-05T23:09:28.665Z,99716.51
2018-06-05T23:11:56.758Z,99715.66
2018-06-05T23:14:24.882Z,99706.51
2018-06-05T23:16:53.173Z,99710.94
2018-06-05T23:19:21.286Z,99706.58
2018-06-05T23:21:49.448Z,99715.29
2018-06-05T23:24:17.658Z,99708.36
2018-06-05T23:26:45.803Z,99709.02
2018-06-05T23:29:13.903Z,99713.47
2018-06-05T23:31:42.039Z,99711.64
2018-06-05T23:34:10.236Z,99706.84
2018-06-05T23:36:38.362Z,99712.03
2018-06-05T23:39:07.403Z,99716.59
2018-06-05T23:41:35.805Z,99713.41
2018-06-05T23:44:03.929Z,99710.82
2018-06-05T23:46:32.079Z,99703.58
2018-06-05T23:49:00.188Z,99707.50
2018-06-05T23:51:29.475Z,99703.45
2018-06-05T23:53:57.694Z,99697.11
2018-06-05T23:56:25.771Z,99694.61
2018-06-05T23:58:54.204Z,99707.38
